sensor_id;sensor_type;location;lat;lon;timestamp;P1;durP1;ratioP1;P2;durP2;ratioP2
37877;SDS011;23715;53.652;8.516;2023-05-29T00:01:28;18.57;;;9.35;;
37877;SDS011;23715;53.652;8.516;2023-05-29T00:06:29;20.52;;;9.58;;
37877;SDS011;23715;53.652;8.516;2023-05-29T00:11:30;12.40;;;9.28;;
37877;SDS011;23715;53.652;8.516;2023-05-29T00:16:30;15.65;;;9.50;;
37877;SDS011;23715;53.652;8.516;2023-05-29T00:21:31;17.23;;;9.68;;
37877;SDS011;23715;53.652;8.516;2023-05-29T00:26:31;13.72;;;9.45;;
37877;SDS011;23715;53.652;8.516;2023-05-29T00:31:32;20.83;;;9.37;;
37877;SDS011;23715;53.652;8.516;2023-05-29T00:36:32;21.12;;;10.15;;
37877;SDS011;23715;53.652;8.516;2023-05-29T00:41:33;19.90;;;9.50;;
37877;SDS011;23715;53.652;8.516;2023-05-29T00:46:34;19.67;;;9.35;;
37877;SDS011;23715;53.652;8.516;2023-05-29T00:51:34;19.17;;;9.08;;
37877;SDS011;23715;53.652;8.516;2023-05-29T00:56:35;20.17;;;9.13;;
37877;SDS011;23715;53.652;8.516;2023-05-29T01:01:35;23.60;;;9.78;;
37877;SDS011;23715;53.652;8.516;2023-05-29T01:11:45;15.23;;;9.40;;
37877;SDS011;23715;53.652;8.516;2023-05-29T01:16:55;18.67;;;8.88;;
37877;SDS011;23715;53.652;8.516;2023-05-29T01:27:09;21.65;;;8.53;;
37877;SDS011;23715;53.652;8.516;2023-05-29T01:32:13;19.17;;;8.83;;
37877;SDS011;23715;53.652;8.516;2023-05-29T01:37:15;16.82;;;7.75;;
37877;SDS011;23715;53.652;8.516;2023-05-29T01:42:16;19.32;;;8.08;;
37877;SDS011;23715;53.652;8.516;2023-05-29T01:47:16;19.73;;;7.72;;
37877;SDS011;23715;53.652;8.516;2023-05-29T01:52:17;27.03;;;9.70;;
37877;SDS011;23715;53.652;8.516;2023-05-29T02:02:18;14.30;;;7.37;;
37877;SDS011;23715;53.652;8.516;2023-05-29T02:07:21;16.57;;;7.50;;
37877;SDS011;23715;53.652;8.516;2023-05-29T02:17:22;11.43;;;6.60;;
37877;SDS011;23715;53.652;8.516;2023-05-29T02:22:24;19.15;;;8.48;;
37877;SDS011;23715;53.652;8.516;2023-05-29T02:27:24;19.82;;;7.17;;
37877;SDS011;23715;53.652;8.516;2023-05-29T02:32:24;25.52;;;8.05;;
37877;SDS011;23715;53.652;8.516;2023-05-29T02:37:26;15.58;;;6.95;;
37877;SDS011;23715;53.652;8.516;2023-05-29T02:42:27;16.70;;;8.10;;
37877;SDS011;23715;53.652;8.516;2023-05-29T02:47:27;14.30;;;6.92;;
37877;SDS011;23715;53.652;8.516;2023-05-29T02:52:28;15.80;;;6.10;;
37877;SDS011;23715;53.652;8.516;2023-05-29T02:57:28;19.62;;;6.85;;
37877;SDS011;23715;53.652;8.516;2023-05-29T03:02:30;17.07;;;7.67;;
37877;SDS011;23715;53.652;8.516;2023-05-29T03:07:32;19.85;;;8.53;;
37877;SDS011;23715;53.652;8.516;2023-05-29T03:12:32;18.73;;;7.60;;
37877;SDS011;23715;53.652;8.516;2023-05-29T03:17:33;23.35;;;8.00;;
37877;SDS011;23715;53.652;8.516;2023-05-29T03:22:35;23.12;;;7.62;;
37877;SDS011;23715;53.652;8.516;2023-05-29T03:27:36;23.00;;;9.15;;
37877;SDS011;23715;53.652;8.516;2023-05-29T03:32:38;19.05;;;7.80;;
37877;SDS011;23715;53.652;8.516;2023-05-29T03:37:39;22.60;;;10.03;;
37877;SDS011;23715;53.652;8.516;2023-05-29T03:42:41;17.42;;;8.40;;
37877;SDS011;23715;53.652;8.516;2023-05-29T03:47:41;22.42;;;9.28;;
37877;SDS011;23715;53.652;8.516;2023-05-29T03:52:45;20.85;;;8.80;;
37877;SDS011;23715;53.652;8.516;2023-05-29T03:57:46;27.00;;;10.55;;
37877;SDS011;23715;53.652;8.516;2023-05-29T04:02:47;17.98;;;9.00;;
37877;SDS011;23715;53.652;8.516;2023-05-29T04:12:47;15.57;;;7.73;;
37877;SDS011;23715;53.652;8.516;2023-05-29T04:17:47;24.70;;;8.28;;
37877;SDS011;23715;53.652;8.516;2023-05-29T04:22:49;18.85;;;8.25;;
37877;SDS011;23715;53.652;8.516;2023-05-29T04:27:50;24.57;;;8.60;;
37877;SDS011;23715;53.652;8.516;2023-05-29T04:32:51;18.27;;;8.78;;
37877;SDS011;23715;53.652;8.516;2023-05-29T04:37:55;22.52;;;9.05;;
37877;SDS011;23715;53.652;8.516;2023-05-29T04:42:57;18.07;;;8.87;;
37877;SDS011;23715;53.652;8.516;2023-05-29T04:48:03;17.90;;;7.80;;
37877;SDS011;23715;53.652;8.516;2023-05-29T04:53:05;17.60;;;8.70;;
37877;SDS011;23715;53.652;8.516;2023-05-29T04:58:10;15.32;;;8.10;;
37877;SDS011;23715;53.652;8.516;2023-05-29T05:03:12;22.55;;;10.63;;
37877;SDS011;23715;53.652;8.516;2023-05-29T05:08:14;18.42;;;8.93;;
37877;SDS011;23715;53.652;8.516;2023-05-29T05:13:15;26.80;;;11.22;;
37877;SDS011;23715;53.652;8.516;2023-05-29T05:18:16;29.37;;;9.50;;
37877;SDS011;23715;53.652;8.516;2023-05-29T05:23:18;25.65;;;10.32;;
37877;SDS011;23715;53.652;8.516;2023-05-29T05:28:19;21.20;;;9.45;;
37877;SDS011;23715;53.652;8.516;2023-05-29T05:33:19;28.47;;;11.68;;
37877;SDS011;23715;53.652;8.516;2023-05-29T05:38:20;25.93;;;10.83;;
37877;SDS011;23715;53.652;8.516;2023-05-29T05:48:22;31.57;;;10.95;;
37877;SDS011;23715;53.652;8.516;2023-05-29T05:53:23;24.57;;;11.08;;
37877;SDS011;23715;53.652;8.516;2023-05-29T06:03:23;28.40;;;11.65;;
37877;SDS011;23715;53.652;8.516;2023-05-29T06:08:35;24.02;;;10.65;;
37877;SDS011;23715;53.652;8.516;2023-05-29T06:13:36;27.58;;;10.78;;
37877;SDS011;23715;53.652;8.516;2023-05-29T06:18:38;27.58;;;11.35;;
37877;SDS011;23715;53.652;8.516;2023-05-29T06:28:39;26.42;;;12.18;;
37877;SDS011;23715;53.652;8.516;2023-05-29T06:33:40;35.30;;;12.90;;
37877;SDS011;23715;53.652;8.516;2023-05-29T06:43:51;25.92;;;10.95;;
37877;SDS011;23715;53.652;8.516;2023-05-29T06:48:46;33.33;;;11.55;;
37877;SDS011;23715;53.652;8.516;2023-05-29T06:53:47;36.45;;;11.48;;
37877;SDS011;23715;53.652;8.516;2023-05-29T06:58:47;22.73;;;11.55;;
37877;SDS011;23715;53.652;8.516;2023-05-29T07:03:51;29.90;;;11.93;;
37877;SDS011;23715;53.652;8.516;2023-05-29T07:08:52;25.97;;;12.23;;
37877;SDS011;23715;53.652;8.516;2023-05-29T07:13:54;27.75;;;12.30;;
37877;SDS011;23715;53.652;8.516;2023-05-29T07:18:56;25.93;;;11.10;;
37877;SDS011;23715;53.652;8.516;2023-05-29T07:24:01;26.95;;;11.12;;
37877;SDS011;23715;53.652;8.516;2023-05-29T07:29:01;22.45;;;11.30;;
37877;SDS011;23715;53.652;8.516;2023-05-29T07:34:02;20.68;;;12.10;;
37877;SDS011;23715;53.652;8.516;2023-05-29T07:39:02;24.95;;;10.18;;
37877;SDS011;23715;53.652;8.516;2023-05-29T07:44:04;21.87;;;10.90;;
37877;SDS011;23715;53.652;8.516;2023-05-29T07:49:05;24.18;;;11.55;;
37877;SDS011;23715;53.652;8.516;2023-05-29T07:54:07;28.75;;;12.15;;
37877;SDS011;23715;53.652;8.516;2023-05-29T07:59:09;31.62;;;12.75;;
37877;SDS011;23715;53.652;8.516;2023-05-29T08:04:09;25.75;;;11.70;;
37877;SDS011;23715;53.652;8.516;2023-05-29T08:09:10;30.68;;;10.75;;
37877;SDS011;23715;53.652;8.516;2023-05-29T08:14:11;32.73;;;12.43;;
37877;SDS011;23715;53.652;8.516;2023-05-29T08:19:21;22.27;;;11.05;;
37877;SDS011;23715;53.652;8.516;2023-05-29T08:24:19;25.77;;;12.03;;
37877;SDS011;23715;53.652;8.516;2023-05-29T08:29:19;32.05;;;12.07;;
37877;SDS011;23715;53.652;8.516;2023-05-29T08:34:21;27.60;;;12.93;;
37877;SDS011;23715;53.652;8.516;2023-05-29T08:39:21;27.15;;;11.40;;
37877;SDS011;23715;53.652;8.516;2023-05-29T08:44:22;27.30;;;11.50;;
37877;SDS011;23715;53.652;8.516;2023-05-29T08:49:25;29.20;;;10.15;;
37877;SDS011;23715;53.652;8.516;2023-05-29T08:54:29;30.75;;;11.50;;
37877;SDS011;23715;53.652;8.516;2023-05-29T08:59:32;27.67;;;12.70;;
37877;SDS011;23715;53.652;8.516;2023-05-29T09:04:34;26.05;;;10.93;;
37877;SDS011;23715;53.652;8.516;2023-05-29T09:09:36;31.52;;;12.43;;
37877;SDS011;23715;53.652;8.516;2023-05-29T09:14:37;34.88;;;12.82;;
37877;SDS011;23715;53.652;8.516;2023-05-29T09:19:41;31.05;;;11.68;;
37877;SDS011;23715;53.652;8.516;2023-05-29T09:24:43;32.05;;;11.08;;
37877;SDS011;23715;53.652;8.516;2023-05-29T09:29:49;30.65;;;11.38;;
37877;SDS011;23715;53.652;8.516;2023-05-29T09:34:49;29.10;;;10.40;;
37877;SDS011;23715;53.652;8.516;2023-05-29T09:39:56;23.00;;;10.38;;
37877;SDS011;23715;53.652;8.516;2023-05-29T09:44:56;29.67;;;10.48;;
37877;SDS011;23715;53.652;8.516;2023-05-29T09:50:00;18.95;;;10.88;;
37877;SDS011;23715;53.652;8.516;2023-05-29T09:55:00;32.83;;;12.75;;
37877;SDS011;23715;53.652;8.516;2023-05-29T10:00:03;22.22;;;10.45;;
37877;SDS011;23715;53.652;8.516;2023-05-29T10:05:08;24.12;;;10.90;;
37877;SDS011;23715;53.652;8.516;2023-05-29T10:10:09;23.05;;;10.58;;
37877;SDS011;23715;53.652;8.516;2023-05-29T10:15:12;25.52;;;11.60;;
37877;SDS011;23715;53.652;8.516;2023-05-29T10:20:13;22.98;;;10.90;;
37877;SDS011;23715;53.652;8.516;2023-05-29T10:25:17;31.50;;;11.57;;
37877;SDS011;23715;53.652;8.516;2023-05-29T10:35:42;34.70;;;11.03;;
37877;SDS011;23715;53.652;8.516;2023-05-29T10:40:52;29.30;;;10.98;;
37877;SDS011;23715;53.652;8.516;2023-05-29T10:45:53;28.52;;;11.50;;
37877;SDS011;23715;53.652;8.516;2023-05-29T10:50:53;25.48;;;10.80;;
37877;SDS011;23715;53.652;8.516;2023-05-29T10:55:55;25.35;;;11.30;;
37877;SDS011;23715;53.652;8.516;2023-05-29T11:00:55;30.23;;;12.30;;
37877;SDS011;23715;53.652;8.516;2023-05-29T11:06:03;26.82;;;10.75;;
37877;SDS011;23715;53.652;8.516;2023-05-29T11:11:11;29.35;;;11.90;;
37877;SDS011;23715;53.652;8.516;2023-05-29T11:21:46;25.32;;;9.85;;
37877;SDS011;23715;53.652;8.516;2023-05-29T11:26:55;24.27;;;10.82;;
37877;SDS011;23715;53.652;8.516;2023-05-29T11:31:58;19.83;;;10.23;;
37877;SDS011;23715;53.652;8.516;2023-05-29T11:42:06;26.97;;;10.35;;
37877;SDS011;23715;53.652;8.516;2023-05-29T11:47:07;26.23;;;11.73;;
37877;SDS011;23715;53.652;8.516;2023-05-29T11:57:17;23.47;;;12.03;;
37877;SDS011;23715;53.652;8.516;2023-05-29T12:02:18;21.75;;;10.90;;
37877;SDS011;23715;53.652;8.516;2023-05-29T12:07:19;27.73;;;12.43;;
37877;SDS011;23715;53.652;8.516;2023-05-29T12:12:19;34.33;;;12.98;;
37877;SDS011;23715;53.652;8.516;2023-05-29T12:17:20;30.70;;;14.28;;
37877;SDS011;23715;53.652;8.516;2023-05-29T12:22:31;22.87;;;12.28;;
37877;SDS011;23715;53.652;8.516;2023-05-29T12:27:33;23.80;;;11.43;;
37877;SDS011;23715;53.652;8.516;2023-05-29T12:32:38;30.62;;;12.35;;
37877;SDS011;23715;53.652;8.516;2023-05-29T12:37:46;26.65;;;11.78;;
37877;SDS011;23715;53.652;8.516;2023-05-29T12:42:48;22.17;;;11.68;;
37877;SDS011;23715;53.652;8.516;2023-05-29T12:47:51;22.70;;;12.07;;
37877;SDS011;23715;53.652;8.516;2023-05-29T12:52:56;28.85;;;11.73;;
37877;SDS011;23715;53.652;8.516;2023-05-29T12:58:01;25.27;;;13.13;;
37877;SDS011;23715;53.652;8.516;2023-05-29T13:03:02;26.00;;;12.35;;
37877;SDS011;23715;53.652;8.516;2023-05-29T13:08:02;29.23;;;12.13;;
37877;SDS011;23715;53.652;8.516;2023-05-29T13:13:04;21.65;;;11.93;;
37877;SDS011;23715;53.652;8.516;2023-05-29T13:18:04;22.50;;;13.88;;
37877;SDS011;23715;53.652;8.516;2023-05-29T13:23:05;23.73;;;13.47;;
37877;SDS011;23715;53.652;8.516;2023-05-29T13:28:07;28.25;;;13.20;;
37877;SDS011;23715;53.652;8.516;2023-05-29T13:33:07;22.98;;;12.40;;
37877;SDS011;23715;53.652;8.516;2023-05-29T13:38:07;24.80;;;12.03;;
37877;SDS011;23715;53.652;8.516;2023-05-29T13:43:08;29.15;;;13.78;;
37877;SDS011;23715;53.652;8.516;2023-05-29T13:48:08;23.27;;;14.20;;
37877;SDS011;23715;53.652;8.516;2023-05-29T13:58:08;27.30;;;11.87;;
37877;SDS011;23715;53.652;8.516;2023-05-29T14:08:58;26.80;;;12.98;;
37877;SDS011;23715;53.652;8.516;2023-05-29T14:13:59;22.07;;;12.50;;
37877;SDS011;23715;53.652;8.516;2023-05-29T14:18:59;19.53;;;13.00;;
37877;SDS011;23715;53.652;8.516;2023-05-29T14:34:14;16.45;;;12.33;;
37877;SDS011;23715;53.652;8.516;2023-05-29T14:44:37;34.40;;;12.45;;
37877;SDS011;23715;53.652;8.516;2023-05-29T14:49:52;23.32;;;14.30;;
37877;SDS011;23715;53.652;8.516;2023-05-29T14:54:55;22.75;;;12.93;;
37877;SDS011;23715;53.652;8.516;2023-05-29T15:00:02;21.35;;;11.00;;
37877;SDS011;23715;53.652;8.516;2023-05-29T15:05:04;22.40;;;12.43;;
37877;SDS011;23715;53.652;8.516;2023-05-29T15:10:11;18.20;;;10.95;;
37877;SDS011;23715;53.652;8.516;2023-05-29T15:15:11;20.05;;;12.50;;
37877;SDS011;23715;53.652;8.516;2023-05-29T15:20:13;25.45;;;12.20;;
37877;SDS011;23715;53.652;8.516;2023-05-29T15:25:17;19.45;;;10.93;;
37877;SDS011;23715;53.652;8.516;2023-05-29T15:30:18;25.68;;;11.08;;
37877;SDS011;23715;53.652;8.516;2023-05-29T15:35:19;16.32;;;10.15;;
37877;SDS011;23715;53.652;8.516;2023-05-29T15:40:19;25.62;;;10.63;;
37877;SDS011;23715;53.652;8.516;2023-05-29T15:45:20;18.75;;;10.48;;
37877;SDS011;23715;53.652;8.516;2023-05-29T15:50:20;20.77;;;10.60;;
37877;SDS011;23715;53.652;8.516;2023-05-29T16:00:21;22.17;;;10.63;;
37877;SDS011;23715;53.652;8.516;2023-05-29T16:05:21;19.65;;;10.60;;
37877;SDS011;23715;53.652;8.516;2023-05-29T16:10:22;20.23;;;11.95;;
37877;SDS011;23715;53.652;8.516;2023-05-29T16:15:23;19.87;;;10.53;;
37877;SDS011;23715;53.652;8.516;2023-05-29T16:20:26;18.00;;;11.12;;
37877;SDS011;23715;53.652;8.516;2023-05-29T16:25:28;20.45;;;11.12;;
37877;SDS011;23715;53.652;8.516;2023-05-29T16:35:28;22.20;;;10.43;;
37877;SDS011;23715;53.652;8.516;2023-05-29T16:40:28;23.52;;;9.90;;
37877;SDS011;23715;53.652;8.516;2023-05-29T16:45:28;26.33;;;11.35;;
37877;SDS011;23715;53.652;8.516;2023-05-29T16:50:29;23.35;;;10.88;;
37877;SDS011;23715;53.652;8.516;2023-05-29T16:55:29;22.73;;;10.80;;
37877;SDS011;23715;53.652;8.516;2023-05-29T17:00:29;21.42;;;10.18;;
37877;SDS011;23715;53.652;8.516;2023-05-29T17:05:31;20.37;;;10.05;;
37877;SDS011;23715;53.652;8.516;2023-05-29T17:10:32;24.50;;;11.00;;
37877;SDS011;23715;53.652;8.516;2023-05-29T17:15:33;23.57;;;10.90;;
37877;SDS011;23715;53.652;8.516;2023-05-29T17:20:33;25.57;;;12.10;;
37877;SDS011;23715;53.652;8.516;2023-05-29T17:30:33;23.70;;;10.80;;
37877;SDS011;23715;53.652;8.516;2023-05-29T17:35:33;30.27;;;11.55;;
37877;SDS011;23715;53.652;8.516;2023-05-29T17:40:34;26.48;;;11.28;;
37877;SDS011;23715;53.652;8.516;2023-05-29T17:45:35;22.60;;;11.48;;
37877;SDS011;23715;53.652;8.516;2023-05-29T17:50:35;28.98;;;11.73;;
37877;SDS011;23715;53.652;8.516;2023-05-29T18:00:35;26.87;;;10.85;;
37877;SDS011;23715;53.652;8.516;2023-05-29T18:05:36;28.38;;;11.60;;
37877;SDS011;23715;53.652;8.516;2023-05-29T18:10:36;20.80;;;12.10;;
37877;SDS011;23715;53.652;8.516;2023-05-29T18:15:37;23.38;;;11.83;;
37877;SDS011;23715;53.652;8.516;2023-05-29T18:20:37;23.00;;;11.57;;
37877;SDS011;23715;53.652;8.516;2023-05-29T18:25:37;19.23;;;12.15;;
37877;SDS011;23715;53.652;8.516;2023-05-29T18:30:38;29.23;;;10.72;;
37877;SDS011;23715;53.652;8.516;2023-05-29T18:35:39;25.82;;;11.38;;
37877;SDS011;23715;53.652;8.516;2023-05-29T18:40:40;24.20;;;10.75;;
37877;SDS011;23715;53.652;8.516;2023-05-29T18:45:40;26.68;;;10.75;;
37877;SDS011;23715;53.652;8.516;2023-05-29T18:55:40;35.88;;;12.13;;
37877;SDS011;23715;53.652;8.516;2023-05-29T19:00:42;30.10;;;12.55;;
37877;SDS011;23715;53.652;8.516;2023-05-29T19:05:44;24.23;;;11.70;;
37877;SDS011;23715;53.652;8.516;2023-05-29T19:10:46;24.35;;;11.63;;
37877;SDS011;23715;53.652;8.516;2023-05-29T19:15:49;29.35;;;11.25;;
37877;SDS011;23715;53.652;8.516;2023-05-29T19:20:51;28.10;;;11.70;;
37877;SDS011;23715;53.652;8.516;2023-05-29T19:26:08;23.65;;;10.60;;
37877;SDS011;23715;53.652;8.516;2023-05-29T19:31:08;28.95;;;10.90;;
37877;SDS011;23715;53.652;8.516;2023-05-29T19:36:08;29.27;;;10.72;;
37877;SDS011;23715;53.652;8.516;2023-05-29T19:41:14;27.55;;;10.93;;
37877;SDS011;23715;53.652;8.516;2023-05-29T19:46:34;25.40;;;10.40;;
37877;SDS011;23715;53.652;8.516;2023-05-29T19:51:37;14.28;;;8.53;;
37877;SDS011;23715;53.652;8.516;2023-05-29T19:56:37;21.50;;;9.43;;
37877;SDS011;23715;53.652;8.516;2023-05-29T20:01:37;23.40;;;10.00;;
37877;SDS011;23715;53.652;8.516;2023-05-29T20:06:39;19.12;;;8.55;;
37877;SDS011;23715;53.652;8.516;2023-05-29T20:11:41;27.90;;;10.43;;
37877;SDS011;23715;53.652;8.516;2023-05-29T20:21:42;29.98;;;10.98;;
37877;SDS011;23715;53.652;8.516;2023-05-29T20:31:43;22.65;;;11.55;;
37877;SDS011;23715;53.652;8.516;2023-05-29T20:36:44;18.07;;;10.85;;
37877;SDS011;23715;53.652;8.516;2023-05-29T20:41:44;21.48;;;11.53;;
37877;SDS011;23715;53.652;8.516;2023-05-29T20:46:46;29.05;;;10.78;;
37877;SDS011;23715;53.652;8.516;2023-05-29T20:51:47;18.65;;;11.43;;
37877;SDS011;23715;53.652;8.516;2023-05-29T20:56:47;23.57;;;12.43;;
37877;SDS011;23715;53.652;8.516;2023-05-29T21:01:48;19.95;;;11.05;;
37877;SDS011;23715;53.652;8.516;2023-05-29T21:06:48;19.52;;;12.53;;
37877;SDS011;23715;53.652;8.516;2023-05-29T21:11:51;14.85;;;12.18;;
37877;SDS011;23715;53.652;8.516;2023-05-29T21:16:55;21.95;;;11.00;;
37877;SDS011;23715;53.652;8.516;2023-05-29T21:21:56;18.82;;;11.55;;
37877;SDS011;23715;53.652;8.516;2023-05-29T21:26:56;26.73;;;12.73;;
37877;SDS011;23715;53.652;8.516;2023-05-29T21:31:56;18.45;;;13.70;;
37877;SDS011;23715;53.652;8.516;2023-05-29T21:41:57;18.77;;;12.63;;
37877;SDS011;23715;53.652;8.516;2023-05-29T21:46:57;20.20;;;12.35;;
37877;SDS011;23715;53.652;8.516;2023-05-29T21:51:57;23.15;;;13.10;;
37877;SDS011;23715;53.652;8.516;2023-05-29T21:56:58;19.00;;;13.93;;
37877;SDS011;23715;53.652;8.516;2023-05-29T22:01:59;25.60;;;14.18;;
37877;SDS011;23715;53.652;8.516;2023-05-29T22:07:02;25.23;;;14.35;;
37877;SDS011;23715;53.652;8.516;2023-05-29T22:12:02;24.67;;;15.43;;
37877;SDS011;23715;53.652;8.516;2023-05-29T22:17:03;23.07;;;13.35;;
37877;SDS011;23715;53.652;8.516;2023-05-29T22:22:05;21.45;;;14.70;;
37877;SDS011;23715;53.652;8.516;2023-05-29T22:27:13;20.65;;;14.55;;
37877;SDS011;23715;53.652;8.516;2023-05-29T22:32:10;25.12;;;14.20;;
37877;SDS011;23715;53.652;8.516;2023-05-29T22:37:10;21.57;;;14.53;;
37877;SDS011;23715;53.652;8.516;2023-05-29T22:42:10;18.60;;;13.75;;
37877;SDS011;23715;53.652;8.516;2023-05-29T22:47:11;29.90;;;15.03;;
37877;SDS011;23715;53.652;8.516;2023-05-29T22:52:11;21.62;;;14.07;;
37877;SDS011;23715;53.652;8.516;2023-05-29T23:02:11;23.30;;;13.80;;
37877;SDS011;23715;53.652;8.516;2023-05-29T23:07:12;22.25;;;16.15;;
37877;SDS011;23715;53.652;8.516;2023-05-29T23:12:14;32.03;;;16.65;;
37877;SDS011;23715;53.652;8.516;2023-05-29T23:22:14;22.22;;;14.68;;
37877;SDS011;23715;53.652;8.516;2023-05-29T23:27:15;21.68;;;16.77;;
37877;SDS011;23715;53.652;8.516;2023-05-29T23:32:15;24.57;;;16.07;;
37877;SDS011;23715;53.652;8.516;2023-05-29T23:37:15;22.65;;;15.53;;
37877;SDS011;23715;53.652;8.516;2023-05-29T23:42:16;22.02;;;16.37;;
37877;SDS011;23715;53.652;8.516;2023-05-29T23:47:17;23.15;;;16.42;;
37877;SDS011;23715;53.652;8.516;2023-05-29T23:52:17;20.97;;;16.87;;
37877;SDS011;23715;53.652;8.516;2023-05-29T23:57:18;21.33;;;16.40;;
